Accueil
METAR-TAF:

METAR-TAF

Aéroports :

Aérodrome de Koné

Koné, Nouvelle-Calédonie

latitude: 21-03-12S, longitude: 164-50-18E, altitude: 7 m

METAR: absent

Heure: 16:29 (05:29 UTC)

Prévision

Le bulletin a été fait il y a 3 heures et 45 minutes, à 01:44 UTC
Prévision valable du 16 à 01 UTC au 16 à 24 UTC
Vent 14 kt de sud/sud-ouest
Visibilité 10 km ou plus
Nuages épars à une hauteur de 3500 ft
Nuages épars à une hauteur de 4500 ft
Temporairement
du 16 à 01 UTC au 16 à 06 UTC
Vent 20 kt de sud/sud-ouest avec des rafales jusqu'à 30 kt

TAF: NWWD 160144Z 1601/1624 20014KT 9999 SCT035 SCT045 TEMPO 1601/1606 20020G30KT

Observations et prévisions météorologiques de plus de 4000 aéroports (messages METAR et TAF).

Les stations disponibles sont représentées par des disques jaunes et rouges sur la carte.

Passer la souris dessus pour voir le nom de la station.

Cliquer dessus pour voir les observations et prévisions météorologiques.

Pour changer de carte: cliquez sur les boutons verts avec une croix noire pour zoomer, sur le bouton vert avec un tiret pour effectuer un zoom arrière, ou sur les flèches vertes pour les cartes adjacentes.


METAR-TAF: